createdAt,value
2022-09-06T00:00:35.588Z,101389.72
2022-09-06T00:03:02.461Z,101383.56
2022-09-06T00:05:29.983Z,101385.31
2022-09-06T00:07:59.547Z,101379.13
2022-09-06T00:10:26.823Z,101374.72
2022-09-06T00:12:53.695Z,101388.78
2022-09-06T00:15:22.293Z,101382.63
2022-09-06T00:17:49.101Z,101381.72
2022-09-06T00:20:16.475Z,101382.56
2022-09-06T00:22:42.947Z,101382.53
2022-09-06T00:25:09.516Z,101388.66
2022-09-06T00:27:36.030Z,101389.53
2022-09-06T00:30:04.623Z,101394.78
2022-09-06T00:32:31.702Z,101402.69
2022-09-06T00:34:58.161Z,101406.19
2022-09-06T00:37:24.627Z,101406.19
2022-09-06T00:39:51.213Z,101400.88
2022-09-06T00:42:17.730Z,101392.97
2022-09-06T00:44:44.186Z,101380.66
2022-09-06T00:47:10.671Z,101386.81
2022-09-06T00:49:41.335Z,101399.09
2022-09-06T00:52:11.282Z,101385.03
2022-09-06T00:54:39.046Z,101382.38
2022-09-06T00:57:05.578Z,101378.81
2022-09-06T00:59:34.149Z,101380.56
2022-09-06T01:02:00.730Z,101377.91
2022-09-06T01:04:27.670Z,101388.44
2022-09-06T01:07:11.076Z,101389.31
2022-09-06T01:10:01.684Z,101398.97
2022-09-06T01:12:43.726Z,101393.63
2022-09-06T01:15:28.336Z,101393.63
2022-09-06T01:18:30.224Z,101390.13
2022-09-06T01:21:22.259Z,101396.22
2022-09-06T01:24:04.346Z,101387.44
2022-09-06T01:26:52.802Z,101376.03
2022-09-06T01:29:30.598Z,101378.66
2022-09-06T01:32:03.762Z,101380.34
2022-09-06T01:34:41.689Z,101380.34
2022-09-06T01:37:16.451Z,101386.47
2022-09-06T01:39:42.960Z,101384.69
2022-09-06T01:42:10.709Z,101389.06
2022-09-06T01:44:38.352Z,101388.13
2022-09-06T01:47:37.430Z,101391.63
2022-09-06T01:50:40.108Z,101395.13
2022-09-06T01:53:44.916Z,101392.47
2022-09-06T01:56:16.486Z,101390.69
2022-09-06T01:58:48.803Z,101383.56
2022-09-06T02:01:38.253Z,101388.81
2022-09-06T02:04:20.849Z,101384.41
2022-09-06T02:06:50.762Z,101383.50
2022-09-06T02:09:21.797Z,101388.72
2022-09-06T02:11:59.084Z,101367.63
2022-09-06T02:14:31.461Z,101357.97
2022-09-06T02:16:59.337Z,101357.94
2022-09-06T02:19:36.649Z,101359.69
2022-09-06T02:22:07.999Z,101349.16
2022-09-06T02:24:37.141Z,101349.06
2022-09-06T02:27:03.811Z,101353.44
2022-09-06T02:29:30.573Z,101360.41
2022-09-06T02:32:09.091Z,101366.56
2022-09-06T02:34:37.882Z,101367.41
2022-09-06T02:37:05.068Z,101362.16
2022-09-06T02:39:31.568Z,101369.09
2022-09-06T02:41:58.175Z,101365.59
2022-09-06T02:44:24.664Z,101365.56
2022-09-06T02:46:55.088Z,101376.09
2022-09-06T02:49:23.851Z,101363.78
2022-09-06T02:51:50.874Z,101371.66
2022-09-06T02:54:17.320Z,101368.16
2022-09-06T02:56:43.770Z,101358.44
2022-09-06T02:59:10.239Z,101361.03
2022-09-06T03:01:36.778Z,101354.88
2022-09-06T03:04:03.271Z,101351.38
2022-09-06T03:06:30.555Z,101348.72
2022-09-06T03:08:57.025Z,101351.25
2022-09-06T03:11:23.461Z,101349.50
2022-09-06T03:13:51.081Z,101352.13
2022-09-06T03:16:17.599Z,101347.72
2022-09-06T03:18:44.066Z,101343.31
2022-09-06T03:21:11.184Z,101341.53
2022-09-06T03:23:39.468Z,101342.41
2022-09-06T03:26:06.578Z,101342.34
2022-09-06T03:28:33.381Z,101338.81
2022-09-06T03:30:59.903Z,101335.31
2022-09-06T03:33:26.511Z,101332.59
2022-09-06T03:35:56.086Z,101329.06
2022-09-06T03:38:23.457Z,101334.25
2022-09-06T03:40:50.564Z,101327.19
2022-09-06T03:43:18.158Z,101327.13
2022-09-06T03:45:49.197Z,101324.47
2022-09-06T03:48:16.711Z,101327.94
2022-09-06T03:50:46.177Z,101330.56
2022-09-06T03:53:13.057Z,101319.13
2022-09-06T03:55:39.512Z,101328.72
2022-09-06T03:58:05.995Z,101331.34
2022-09-06T04:00:33.583Z,101333.91
2022-09-06T04:03:01.928Z,101344.44
2022-09-06T04:05:28.597Z,101342.63
2022-09-06T04:07:55.063Z,101337.34
2022-09-06T04:10:21.581Z,101342.56
2022-09-06T04:12:48.017Z,101353.09
2022-09-06T04:15:14.498Z,101361.81
2022-09-06T04:17:45.772Z,101351.34
2022-09-06T04:20:13.454Z,101354.81
2022-09-06T04:22:39.955Z,101341.66
2022-09-06T04:25:07.268Z,101348.63
2022-09-06T04:27:33.814Z,101342.50
2022-09-06T04:30:00.261Z,101346.00
2022-09-06T04:32:26.715Z,101350.38
2022-09-06T04:34:53.190Z,101343.31
2022-09-06T04:37:20.101Z,101337.13
2022-09-06T04:39:47.066Z,101332.75
2022-09-06T04:42:13.561Z,101327.47
2022-09-06T04:44:40.007Z,101326.59
2022-09-06T04:47:09.897Z,101323.94
2022-09-06T04:49:36.359Z,101331.84
2022-09-06T04:52:03.004Z,101318.69
2022-09-06T04:54:29.452Z,101323.91
2022-09-06T04:56:55.928Z,101315.06
2022-09-06T04:59:22.362Z,101322.03
2022-09-06T05:01:48.859Z,101318.56
2022-09-06T05:04:15.404Z,101325.59
2022-09-06T05:06:42.933Z,101330.84
2022-09-06T05:09:09.628Z,101327.34
2022-09-06T05:11:36.067Z,101323.81
2022-09-06T05:14:02.782Z,101326.41
2022-09-06T05:16:29.264Z,101322.91
2022-09-06T05:18:55.769Z,101318.56
2022-09-06T05:21:22.856Z,101319.44
2022-09-06T05:23:49.284Z,101325.56
2022-09-06T05:26:15.722Z,101320.28
2022-09-06T05:28:42.172Z,101324.69
2022-09-06T05:31:25.535Z,101329.06
2022-09-06T05:33:53.400Z,101333.44
2022-09-06T05:36:19.992Z,101329.09
2022-09-06T05:38:46.447Z,101319.47
2022-09-06T05:41:12.958Z,101315.09
2022-09-06T05:43:39.399Z,101310.78
2022-09-06T05:46:05.972Z,101304.50
2022-09-06T05:48:36.775Z,101310.69
2022-09-06T05:51:05.848Z,101311.53
2022-09-06T05:53:45.255Z,101300.16
2022-09-06T05:56:13.648Z,101306.34
2022-09-06T05:58:40.266Z,101313.44
2022-09-06T06:01:21.773Z,101304.72
2022-09-06T06:03:52.597Z,101312.66
2022-09-06T06:06:19.697Z,101308.28
2022-09-06T06:08:46.423Z,101312.75
2022-09-06T06:11:13.050Z,101304.91
2022-09-06T06:13:39.758Z,101304.09
2022-09-06T06:16:07.538Z,101303.28
2022-09-06T06:18:34.602Z,101305.06
2022-09-06T06:21:28.203Z,101307.72
2022-09-06T06:23:59.414Z,101308.63
2022-09-06T06:26:28.236Z,101313.00
2022-09-06T06:28:55.526Z,101304.25
2022-09-06T06:31:22.602Z,101306.91
2022-09-06T06:33:49.850Z,101302.53
2022-09-06T06:36:16.195Z,101300.75
2022-09-06T06:38:44.188Z,101301.66
2022-09-06T06:41:13.066Z,101298.13
2022-09-06T06:43:39.862Z,101297.34
2022-09-06T06:46:08.657Z,101301.78
2022-09-06T06:48:35.770Z,101301.81
2022-09-06T06:51:02.405Z,101304.44
2022-09-06T06:53:28.906Z,101300.06
2022-09-06T06:55:55.429Z,101298.41
2022-09-06T06:58:21.975Z,101304.56
2022-09-06T07:00:48.579Z,101310.72
2022-09-06T07:03:15.086Z,101310.88
2022-09-06T07:08:29.758Z,101312.75
2022-09-06T07:10:56.184Z,101311.03
2022-09-06T07:13:22.634Z,101322.47
2022-09-06T07:15:49.059Z,101317.16
2022-09-06T07:18:16.252Z,101323.34
2022-09-06T07:26:17.050Z,101315.41
2022-09-06T07:28:43.594Z,101313.72
2022-09-06T07:33:57.769Z,101318.13
2022-09-06T07:36:24.194Z,101312.84
2022-09-06T07:38:50.923Z,101322.44
2022-09-06T07:41:18.658Z,101323.38
2022-09-06T07:43:45.644Z,101333.03
2022-09-06T07:46:14.612Z,101329.63
2022-09-06T07:48:42.531Z,101327.03
2022-09-06T07:51:20.485Z,101328.84
2022-09-06T07:53:58.051Z,101332.41
2022-09-06T07:56:28.978Z,101328.06
2022-09-06T07:58:56.168Z,101333.41
2022-09-06T08:01:32.583Z,101326.41
2022-09-06T08:04:00.888Z,101320.28
2022-09-06T08:06:29.467Z,101320.41
2022-09-06T08:11:25.610Z,101316.16
2022-09-06T08:13:54.772Z,101309.22
2022-09-06T08:16:23.071Z,101299.66
2022-09-06T08:18:54.442Z,101304.94
2022-09-06T08:21:23.592Z,101297.94
2022-09-06T08:23:51.855Z,101298.00
2022-09-06T08:26:20.751Z,101292.75
2022-09-06T08:28:47.451Z,101293.69
2022-09-06T08:31:15.848Z,101300.72
2022-09-06T08:33:42.824Z,101304.22
2022-09-06T08:36:10.815Z,101298.09
2022-09-06T08:38:37.578Z,101298.09
2022-09-06T08:41:27.486Z,101294.56
2022-09-06T08:46:59.564Z,101268.28
2022-09-06T08:49:37.846Z,101276.19
2022-09-06T08:52:45.368Z,101272.69
2022-09-06T08:55:34.176Z,101267.50
2022-09-06T08:58:22.046Z,101269.19
2022-09-06T09:00:53.101Z,101276.28
2022-09-06T09:03:32.714Z,101270.16
2022-09-06T09:06:00.050Z,101258.78
2022-09-06T09:08:36.704Z,101253.50
2022-09-06T09:11:08.374Z,101253.53
2022-09-06T09:13:46.966Z,101244.75
2022-09-06T09:16:17.247Z,101241.28
2022-09-06T09:18:46.601Z,101239.50
2022-09-06T09:21:13.990Z,101238.63
2022-09-06T09:23:40.464Z,101239.50
2022-09-06T09:26:14.039Z,101245.69
2022-09-06T09:29:08.389Z,101251.88
2022-09-06T09:31:55.462Z,101249.22
2022-09-06T09:34:36.002Z,101236.91
2022-09-06T09:40:07.686Z,101238.72
2022-09-06T09:42:36.031Z,101233.41
2022-09-06T09:45:05.688Z,101227.25
2022-09-06T09:47:33.285Z,101227.28
2022-09-06T09:50:00.372Z,101229.03
2022-09-06T09:52:31.533Z,101233.41
2022-09-06T09:55:01.519Z,101227.28
2022-09-06T09:57:30.101Z,101228.13
2022-09-06T09:59:58.750Z,101214.88
2022-09-06T10:02:29.590Z,101217.53
2022-09-06T10:05:02.210Z,101202.53
2022-09-06T10:07:29.048Z,101210.47
2022-09-06T10:10:10.731Z,101209.56
2022-09-06T10:12:39.364Z,101216.63
2022-09-06T10:15:07.721Z,101212.22
2022-09-06T10:17:35.227Z,101207.81
2022-09-06T10:20:09.743Z,101210.47
2022-09-06T10:23:00.125Z,101211.28
2022-09-06T10:25:37.967Z,101201.59
2022-09-06T10:28:19.807Z,101197.16
2022-09-06T10:31:12.253Z,101193.63
2022-09-06T10:33:55.245Z,101190.06
2022-09-06T10:36:30.082Z,101193.53
2022-09-06T10:39:03.519Z,101196.19
2022-09-06T10:41:49.132Z,101202.31
2022-09-06T10:44:30.411Z,101184.59
2022-09-06T10:47:11.700Z,101194.28
2022-09-06T10:49:40.291Z,101184.56
2022-09-06T10:52:09.530Z,101186.22
2022-09-06T10:54:40.950Z,101192.38
2022-09-06T11:00:14.771Z,101186.97
2022-09-06T11:06:06.128Z,101175.44
2022-09-06T11:11:28.841Z,101162.84
2022-09-06T11:13:55.288Z,101153.06
2022-09-06T11:16:32.475Z,101162.81
2022-09-06T11:19:17.475Z,101157.28
2022-09-06T11:21:55.152Z,101159.94
2022-09-06T11:24:37.068Z,101167.91
2022-09-06T11:27:14.059Z,101162.63
2022-09-06T11:29:43.148Z,101164.34
2022-09-06T11:32:38.533Z,101164.22
2022-09-06T11:35:10.083Z,101165.16
2022-09-06T11:37:42.805Z,101161.56
2022-09-06T11:40:30.159Z,101164.13
2022-09-06T11:42:59.170Z,101153.44
2022-09-06T11:45:43.134Z,101153.34
2022-09-06T11:48:54.236Z,101153.28
2022-09-06T11:51:44.124Z,101150.56
2022-09-06T11:54:19.947Z,101154.94
2022-09-06T11:56:46.266Z,101152.31
2022-09-06T11:59:21.701Z,101155.78
2022-09-06T12:02:08.456Z,101154.88
2022-09-06T12:05:00.913Z,101154.88
2022-09-06T12:07:28.502Z,101154.78
2022-09-06T12:09:55.065Z,101152.94
2022-09-06T12:12:48.067Z,101152.94
2022-09-06T12:15:25.825Z,101146.75
2022-09-06T12:17:52.721Z,101146.63
2022-09-06T12:20:54.266Z,101143.88
2022-09-06T12:23:35.988Z,101136.84
2022-09-06T12:26:04.009Z,101139.63
2022-09-06T12:28:47.168Z,101130.63
2022-09-06T12:31:29.407Z,101122.66
2022-09-06T12:33:57.439Z,101123.56
2022-09-06T12:36:23.771Z,101114.72
2022-09-06T12:39:10.355Z,101120.84
2022-09-06T12:41:43.124Z,101117.38
2022-09-06T12:44:09.916Z,101115.50
2022-09-06T12:46:36.948Z,101116.31
2022-09-06T12:49:11.449Z,101103.09
2022-09-06T12:51:40.121Z,101109.28
2022-09-06T12:54:21.946Z,101097.72
2022-09-06T12:56:48.515Z,101109.88
2022-09-06T12:59:19.256Z,101090.31
2022-09-06T13:02:07.232Z,101095.66
2022-09-06T13:04:48.863Z,101095.50
2022-09-06T13:07:17.721Z,101083.97
2022-09-06T13:09:47.117Z,101086.34
2022-09-06T13:12:26.313Z,101075.78
2022-09-06T13:14:55.225Z,101074.81
2022-09-06T13:17:30.149Z,101059.88
2022-09-06T13:19:58.173Z,101064.31
2022-09-06T13:22:48.718Z,101061.53
2022-09-06T13:25:20.473Z,101056.28
2022-09-06T13:27:51.629Z,101055.25
2022-09-06T13:30:36.976Z,101050.75
2022-09-06T13:33:05.209Z,101052.53
2022-09-06T13:35:34.376Z,101051.88
2022-09-06T13:38:30.653Z,101048.88
2022-09-06T13:41:16.084Z,101049.03
2022-09-06T13:43:48.558Z,101040.06
2022-09-06T13:46:15.058Z,101042.72
2022-09-06T13:48:44.215Z,101033.69
2022-09-06T13:51:11.259Z,101036.34
2022-09-06T13:53:37.699Z,101040.63
2022-09-06T13:56:05.116Z,101034.44
2022-09-06T13:58:31.547Z,101036.91
2022-09-06T14:00:58.510Z,101033.31
2022-09-06T14:03:27.597Z,101044.88
2022-09-06T14:05:54.068Z,101043.13
2022-09-06T14:08:21.119Z,101048.19
2022-09-06T14:10:48.362Z,101037.56
2022-09-06T14:13:16.078Z,101040.22
2022-09-06T14:15:42.852Z,101033.88
2022-09-06T14:18:13.796Z,101036.63
2022-09-06T14:20:41.340Z,101028.44
2022-09-06T14:23:07.790Z,101028.50
2022-09-06T14:25:35.624Z,101035.56
2022-09-06T14:28:05.557Z,101031.09
2022-09-06T14:30:32.158Z,101031.00
2022-09-06T14:32:58.718Z,101033.63
2022-09-06T14:35:25.171Z,101031.81
2022-09-06T14:37:51.614Z,101022.84
2022-09-06T14:40:18.285Z,101029.88
2022-09-06T14:42:47.612Z,101026.34
2022-09-06T14:45:17.607Z,101027.25
2022-09-06T14:47:44.034Z,101028.13
2022-09-06T14:50:10.556Z,101027.22
2022-09-06T14:52:36.990Z,101018.38
2022-09-06T14:55:03.795Z,101021.88
2022-09-06T14:57:30.330Z,101022.88
2022-09-06T14:59:56.821Z,101019.28
2022-09-06T15:02:23.269Z,101018.16
2022-09-06T15:04:49.812Z,101011.13
2022-09-06T15:07:16.247Z,101002.50
2022-09-06T15:09:43.095Z,101006.69
2022-09-06T15:12:09.520Z,100998.59
2022-09-06T15:14:37.408Z,101010.91
2022-09-06T15:17:08.664Z,101010.81
2022-09-06T15:19:36.931Z,101013.63
2022-09-06T15:22:04.659Z,101006.56
2022-09-06T15:24:31.611Z,101010.06
2022-09-06T15:26:58.515Z,101004.66
2022-09-06T15:29:27.321Z,100999.13
2022-09-06T15:31:54.440Z,101005.47
2022-09-06T15:34:23.176Z,100996.44
2022-09-06T15:36:50.506Z,100996.69
2022-09-06T15:39:17.532Z,100989.72
2022-09-06T15:41:44.247Z,100991.34
2022-09-06T15:44:16.000Z,100992.13
2022-09-06T15:46:46.819Z,100982.47
2022-09-06T15:49:16.131Z,100980.78
2022-09-06T15:51:42.797Z,100980.69
2022-09-06T15:54:10.085Z,100974.41
2022-09-06T15:56:36.758Z,100975.34
2022-09-06T15:59:03.686Z,100975.25
2022-09-06T16:01:30.591Z,100973.41
2022-09-06T16:04:05.912Z,100976.81
2022-09-06T16:06:38.137Z,100982.31
2022-09-06T16:09:07.717Z,100971.47
2022-09-06T16:11:36.503Z,100971.59
2022-09-06T16:14:09.284Z,100979.47
2022-09-06T16:16:36.103Z,100968.84
2022-09-06T16:19:02.917Z,100971.50
2022-09-06T16:21:32.064Z,100970.75
2022-09-06T16:24:00.904Z,100966.22
2022-09-06T16:26:32.083Z,100963.53
2022-09-06T16:28:58.995Z,100963.34
2022-09-06T16:31:25.563Z,100954.66
2022-09-06T16:33:53.642Z,100960.94
2022-09-06T16:36:21.381Z,100960.88
2022-09-06T16:38:48.447Z,100954.78
2022-09-06T16:41:23.878Z,100960.13
2022-09-06T16:43:50.342Z,100962.47
2022-09-06T16:46:17.388Z,100952.16
2022-09-06T16:48:43.865Z,100954.13
2022-09-06T16:51:18.052Z,100955.75
2022-09-06T16:53:46.343Z,100957.03
2022-09-06T16:56:15.677Z,100960.81
2022-09-06T16:58:43.492Z,100955.88
2022-09-06T17:01:10.526Z,100961.56
2022-09-06T17:03:37.736Z,100968.63
2022-09-06T17:06:04.862Z,100963.84
2022-09-06T17:08:32.664Z,100963.63
2022-09-06T17:11:02.999Z,100963.09
2022-09-06T17:13:30.398Z,100962.28
2022-09-06T17:16:18.044Z,100965.09
2022-09-06T17:18:48.011Z,100963.50
2022-09-06T17:21:14.842Z,100963.50
2022-09-06T17:23:41.305Z,100961.41
2022-09-06T17:26:07.776Z,100958.38
2022-09-06T17:28:38.261Z,100959.13
2022-09-06T17:31:05.496Z,100954.16
2022-09-06T17:33:32.313Z,100952.78
2022-09-06T17:36:11.619Z,100949.56
2022-09-06T17:38:39.536Z,100952.47
2022-09-06T17:41:19.996Z,100959.81
2022-09-06T17:43:47.339Z,100956.47
2022-09-06T17:46:13.857Z,100955.84
2022-09-06T17:48:40.328Z,100956.88
2022-09-06T17:51:08.047Z,100959.75
2022-09-06T17:53:38.040Z,100958.09
2022-09-06T17:56:09.719Z,100964.50
2022-09-06T17:58:36.705Z,100962.91
2022-09-06T18:01:14.073Z,100961.25
2022-09-06T18:03:41.958Z,100959.59
2022-09-06T18:06:13.823Z,100962.41
2022-09-06T18:08:43.163Z,100965.13
2022-09-06T18:11:21.740Z,100972.38
2022-09-06T18:13:49.112Z,100961.84
2022-09-06T18:16:15.634Z,100967.28
2022-09-06T18:18:42.259Z,100962.13
2022-09-06T18:21:08.708Z,100958.69
2022-09-06T18:23:35.542Z,100968.50
2022-09-06T18:26:05.452Z,100965.94
2022-09-06T18:28:33.385Z,100976.66
2022-09-06T18:31:00.592Z,100973.22
2022-09-06T18:33:27.831Z,100993.59
2022-09-06T18:35:54.428Z,100983.97
2022-09-06T18:38:21.183Z,100984.97
2022-09-06T18:40:58.464Z,100977.03
2022-09-06T18:43:31.768Z,100988.63
2022-09-06T18:46:09.371Z,100985.97
2022-09-06T18:48:37.078Z,100994.81
2022-09-06T18:51:08.611Z,100993.09
2022-09-06T18:53:36.200Z,101005.50
2022-09-06T18:56:02.829Z,101002.97
2022-09-06T18:58:29.823Z,101007.38
2022-09-06T19:01:06.612Z,101005.72
2022-09-06T19:03:33.733Z,101010.13
2022-09-06T19:06:05.124Z,101013.69
2022-09-06T19:08:31.594Z,101026.97
2022-09-06T19:11:03.185Z,101012.00
2022-09-06T19:13:30.487Z,101019.97
2022-09-06T19:15:57.633Z,101012.94
2022-09-06T19:18:28.076Z,101014.88
2022-09-06T19:21:05.020Z,101028.13
2022-09-06T19:23:33.372Z,101024.59
2022-09-06T19:26:05.394Z,101021.16
2022-09-06T19:28:32.851Z,101012.38
2022-09-06T19:31:06.103Z,101020.38
2022-09-06T19:33:36.115Z,101011.59
2022-09-06T19:36:11.599Z,101016.91
2022-09-06T19:38:59.556Z,101011.63
2022-09-06T19:41:26.490Z,101002.81
2022-09-06T19:43:54.794Z,101001.94
2022-09-06T19:46:21.818Z,101001.97
2022-09-06T19:48:51.733Z,101000.25
2022-09-06T19:51:18.934Z,100997.66
2022-09-06T19:53:53.500Z,100990.56
2022-09-06T19:56:31.564Z,100994.16
2022-09-06T19:58:59.814Z,100980.97
2022-09-06T20:01:29.229Z,100983.66
2022-09-06T20:03:55.925Z,100979.31
2022-09-06T20:06:22.851Z,100978.50
2022-09-06T20:08:51.634Z,100980.28
2022-09-06T20:11:19.173Z,100979.44
2022-09-06T20:13:45.762Z,100966.28
2022-09-06T20:16:13.002Z,100976.88
2022-09-06T20:18:39.755Z,100965.50
2022-09-06T20:21:06.492Z,100969.03
2022-09-06T20:23:34.376Z,100974.31
2022-09-06T20:26:06.267Z,100972.59
2022-09-06T20:28:33.490Z,100968.22
2022-09-06T20:31:06.412Z,100960.31
2022-09-06T20:33:33.478Z,100964.69
2022-09-06T20:36:04.367Z,100961.22
2022-09-06T20:38:31.729Z,100966.50
2022-09-06T20:41:11.744Z,100970.91
2022-09-06T20:43:38.788Z,100967.41
2022-09-06T20:46:09.624Z,100964.81
2022-09-06T20:48:44.237Z,100968.34
2022-09-06T20:51:13.163Z,100959.56
2022-09-06T20:53:40.705Z,100968.41
2022-09-06T20:56:14.636Z,100966.66
2022-09-06T20:58:41.452Z,100963.19
2022-09-06T21:01:10.849Z,100959.66
2022-09-06T21:03:39.242Z,100953.50
2022-09-06T21:06:06.952Z,100950.91
2022-09-06T21:08:35.432Z,100948.28
2022-09-06T21:11:04.721Z,100942.13
2022-09-06T21:13:31.578Z,100941.25
2022-09-06T21:15:58.352Z,100946.53
2022-09-06T21:18:26.342Z,100947.44
2022-09-06T21:20:57.942Z,100956.28
2022-09-06T21:23:24.770Z,100964.22
2022-09-06T21:26:02.183Z,100957.16
2022-09-06T21:28:30.158Z,100957.19
2022-09-06T21:31:11.921Z,100953.69
2022-09-06T21:33:40.574Z,100948.41
2022-09-06T21:36:09.812Z,100954.53
2022-09-06T21:38:38.346Z,100959.88
2022-09-06T21:41:06.337Z,100954.59
2022-09-06T21:43:33.273Z,100956.34
2022-09-06T21:46:04.191Z,100954.63
2022-09-06T21:48:30.897Z,100956.41
2022-09-06T21:50:57.469Z,100950.25
2022-09-06T21:53:26.024Z,100944.13
2022-09-06T21:55:52.481Z,100940.63
2022-09-06T21:58:19.698Z,100946.75
2022-09-06T22:00:52.087Z,100944.13
2022-09-06T22:03:18.669Z,100947.66
2022-09-06T22:05:46.036Z,100943.28
2022-09-06T22:08:12.488Z,100938.00
2022-09-06T22:10:39.030Z,100950.31
2022-09-06T22:13:05.453Z,100933.63
2022-09-06T22:15:31.886Z,100938.91
2022-09-06T22:17:58.342Z,100938.88
2022-09-06T22:20:24.843Z,100941.53
2022-09-06T22:22:51.253Z,100946.81
2022-09-06T22:25:17.721Z,100944.19
2022-09-06T22:27:44.670Z,100942.44
2022-09-06T22:30:11.645Z,100937.16
2022-09-06T22:32:38.108Z,100938.03
2022-09-06T22:35:05.977Z,100935.34
2022-09-06T22:37:36.303Z,100938.00
2022-09-06T22:40:03.856Z,100942.41
2022-09-06T22:42:30.453Z,100937.13
2022-09-06T22:44:56.992Z,100935.38
2022-09-06T22:47:23.438Z,100927.47
2022-09-06T22:49:49.878Z,100923.09
2022-09-06T22:52:16.323Z,100916.03
2022-09-06T22:54:42.771Z,100916.91
2022-09-06T22:57:09.232Z,100908.16
2022-09-06T22:59:36.185Z,100903.75
2022-09-06T23:02:03.147Z,100906.41
2022-09-06T23:04:29.668Z,100900.25
2022-09-06T23:06:56.154Z,100892.34
2022-09-06T23:09:22.585Z,100888.84
2022-09-06T23:11:49.066Z,100891.44
2022-09-06T23:14:15.531Z,100893.22
2022-09-06T23:16:41.968Z,100887.06
2022-09-06T23:19:08.457Z,100882.69
2022-09-06T23:21:34.962Z,100892.34
2022-09-06T23:24:01.488Z,100883.56
2022-09-06T23:26:29.763Z,100873.94
2022-09-06T23:28:59.113Z,100864.25
2022-09-06T23:31:28.761Z,100873.03
2022-09-06T23:33:57.220Z,100879.19
2022-09-06T23:36:23.815Z,100882.69
2022-09-06T23:38:50.315Z,100880.06
2022-09-06T23:41:17.120Z,100879.16
2022-09-06T23:43:44.169Z,100875.66
2022-09-06T23:46:12.448Z,100864.25
2022-09-06T23:48:39.167Z,100856.34
2022-09-06T23:51:05.823Z,100850.22
2022-09-06T23:53:32.312Z,100859.00
2022-09-06T23:55:58.942Z,100857.22
2022-09-06T23:58:25.498Z,100855.47
